Portada
METAR-TAF:

METAR-TAF

Aeroports :

Nuuk, Grenlàndia

latitud: 64-10N, longitud: 051-45W, altitud: 80 m

Observació

L'informe es va fer fa 36 minuts, a les 09:50 UTC
Vent 8 kt del Oest/Nord-Oest
Temperatura -17°C
Humitat 71%
Pressió 997 hPa
Visibilitat: 4000 m
Cel cobert a una alçada de 2000 ft
neu

METAR: BGGH 190950Z 29008KT 4000 -SN OVC020 M17/M21 Q0997

Hora: 07:26 (10:26 UTC)

Pronòstic

L'informe es va fer fa 2 hores i 6 minuts, a les 08:20 UTC
Pronòstic vàlid del 19 a les 09 UTC al 19 a les 18 UTC
Vent 10 kt del Oest/Nord-Oest
Visibilitat 10 km o més
Escasses núvols a una alçada de 1200 ft
Cel ennuvolat a una alçada de 3500 ft
Temporalment
l' 19 a les 09 UTC al 19 a les 18 UTC
Visibilitat: 1200 m
Núvols disperses a una alçada de 800 ft
Cel ennuvolat a una alçada de 1200 ft
xàfecs de neu

TAF: BGGH 190820Z 1909/1918 30010KT 9999 FEW012 BKN035 TEMPO 1909/1918 1200 SHSN SCT008 BKN012

Observacions i pronòstics meteorològics de més de 4000 aeroports (METAR i TAF).

Les estacions disponibles són els punts grocs i vermells al mapa.

Posi el ratolí al punt desitjat per veure el nom de l'estació.

Feu clic per veure les observacions i els pronòstics meteorològics.

Per canviar el mapa: feu clic els botons verds amb una creu de color negre per apropar; al botó verd amb un guió per allunyar la imatge; o en les fletxes verdes per a mapes adjacents.


METAR-TAF: